createdAt,value
2023-03-22T00:01:43.469Z,11.85
2023-03-22T00:04:11.428Z,12.73
2023-03-22T00:06:39.201Z,15.82
2023-03-22T00:09:06.982Z,13.57
2023-03-22T00:11:34.698Z,10.70
2023-03-22T00:14:02.457Z,11.85
2023-03-22T00:16:32.541Z,13.18
2023-03-22T00:19:00.629Z,14.20
2023-03-22T00:21:28.380Z,13.85
2023-03-22T00:23:56.139Z,13.77
2023-03-22T00:26:23.849Z,18.15
2023-03-22T00:28:54.339Z,17.60
2023-03-22T00:31:22.210Z,15.60
2023-03-22T00:33:49.959Z,16.05
2023-03-22T00:36:17.680Z,20.65
2023-03-22T00:38:45.618Z,16.35
2023-03-22T00:41:21.836Z,17.25
2023-03-22T00:43:50.869Z,16.80
2023-03-22T00:46:20.778Z,17.33
2023-03-22T00:48:49.694Z,18.17
2023-03-22T00:51:18.418Z,21.50
2023-03-22T00:53:51.118Z,20.50
2023-03-22T00:56:19.675Z,22.73
2023-03-22T00:58:57.250Z,21.65
2023-03-22T01:01:27.577Z,22.75
2023-03-22T01:03:55.887Z,27.88
2023-03-22T01:06:23.736Z,18.92
2023-03-22T01:08:51.880Z,21.13
2023-03-22T01:11:19.738Z,24.00
2023-03-22T01:13:50.509Z,19.70
2023-03-22T01:16:18.593Z,20.52
2023-03-22T01:18:46.473Z,19.95
2023-03-22T01:21:14.749Z,15.65
2023-03-22T01:23:42.869Z,18.25
2023-03-22T01:26:10.696Z,17.08
2023-03-22T01:28:40.655Z,19.23
2023-03-22T01:31:09.655Z,18.00
2023-03-22T01:33:38.344Z,21.70
2023-03-22T01:36:09.193Z,23.08
2023-03-22T01:38:37.064Z,21.25
2023-03-22T01:41:04.907Z,20.15
2023-03-22T01:43:38.647Z,18.02
2023-03-22T01:46:07.285Z,24.92
2023-03-22T01:48:42.237Z,19.92
2023-03-22T01:51:15.473Z,25.83
2023-03-22T01:57:44.038Z,18.30
2023-03-22T02:00:21.481Z,21.60
2023-03-22T02:03:26.106Z,21.10
2023-03-22T02:05:56.089Z,17.83
2023-03-22T02:08:58.206Z,19.45
2023-03-22T02:11:39.284Z,24.17
2023-03-22T02:14:53.244Z,25.35
2023-03-22T02:18:16.642Z,19.35
2023-03-22T02:21:12.404Z,26.83
2023-03-22T02:23:59.654Z,24.38
2023-03-22T02:26:51.245Z,21.60
2023-03-22T02:29:22.440Z,21.73
2023-03-22T02:31:58.908Z,20.80
2023-03-22T02:34:50.203Z,15.70
2023-03-22T02:37:36.501Z,22.88
2023-03-22T02:40:15.728Z,18.70
2023-03-22T02:43:11.616Z,21.67
2023-03-22T02:45:52.894Z,19.50
2023-03-22T02:48:35.168Z,19.70
2023-03-22T02:51:12.028Z,18.45
2023-03-22T02:54:18.642Z,23.02
2023-03-22T02:57:06.867Z,14.93
2023-03-22T02:59:38.512Z,14.18
2023-03-22T03:02:09.382Z,18.38
2023-03-22T03:04:42.635Z,17.13
2023-03-22T03:07:15.214Z,22.05
2023-03-22T03:09:43.358Z,15.32
2023-03-22T03:12:20.257Z,18.10
2023-03-22T03:14:48.573Z,15.80
2023-03-22T03:17:37.627Z,15.90
2023-03-22T03:20:08.712Z,15.70
2023-03-22T03:22:41.764Z,14.70
2023-03-22T03:25:26.320Z,16.55
2023-03-22T03:28:10.185Z,16.17
2023-03-22T03:31:02.084Z,19.27
2023-03-22T03:33:32.760Z,15.55
2023-03-22T03:36:08.848Z,20.98
2023-03-22T03:41:08.390Z,14.18
2023-03-22T03:43:37.347Z,16.60
2023-03-22T03:46:07.401Z,21.58
2023-03-22T03:48:37.995Z,16.58
2023-03-22T03:51:05.982Z,17.05
2023-03-22T03:53:33.952Z,13.40
2023-03-22T03:56:01.761Z,18.08
2023-03-22T03:58:36.645Z,15.27
2023-03-22T04:01:04.597Z,22.00
2023-03-22T04:03:35.506Z,21.13
2023-03-22T04:06:12.506Z,12.60
2023-03-22T04:08:45.674Z,19.25
2023-03-22T04:11:19.111Z,14.63
2023-03-22T04:13:50.440Z,12.63
2023-03-22T04:16:21.846Z,13.88
2023-03-22T04:18:49.781Z,12.73
2023-03-22T04:21:18.430Z,13.05
2023-03-22T04:23:57.568Z,14.90
2023-03-22T04:26:27.153Z,13.30
2023-03-22T04:29:18.212Z,19.10
2023-03-22T04:31:50.933Z,15.98
2023-03-22T04:34:22.652Z,14.98
2023-03-22T04:36:57.483Z,20.77
2023-03-22T04:39:33.319Z,14.15
2023-03-22T04:42:21.288Z,8.68
2023-03-22T04:44:57.367Z,10.52
2023-03-22T04:47:25.378Z,16.48
2023-03-22T04:49:53.181Z,8.48
2023-03-22T04:52:21.074Z,10.27
2023-03-22T04:54:53.190Z,10.57
2023-03-22T04:57:21.374Z,10.05
2023-03-22T04:59:50.366Z,12.50
2023-03-22T05:02:18.362Z,11.10
2023-03-22T05:04:48.753Z,19.50
2023-03-22T05:07:31.376Z,8.27
2023-03-22T05:10:01.682Z,10.63
2023-03-22T05:12:31.407Z,14.32
2023-03-22T05:15:19.453Z,12.10
2023-03-22T05:17:49.184Z,13.25
2023-03-22T05:20:16.985Z,14.85
2023-03-22T05:22:50.715Z,11.45
2023-03-22T05:25:19.985Z,12.13
2023-03-22T05:27:50.289Z,14.77
2023-03-22T05:30:36.245Z,14.27
2023-03-22T05:33:21.800Z,10.82
2023-03-22T05:35:52.847Z,8.38
2023-03-22T05:38:22.991Z,7.18
2023-03-22T05:40:53.180Z,7.10
2023-03-22T05:43:21.473Z,10.55
2023-03-22T05:45:51.921Z,9.07
2023-03-22T05:48:40.668Z,11.20
2023-03-22T05:51:17.594Z,9.13
2023-03-22T05:53:48.262Z,15.05
2023-03-22T05:56:24.492Z,10.88
2023-03-22T05:59:02.040Z,10.13
2023-03-22T06:01:31.712Z,9.98
2023-03-22T06:04:13.798Z,9.35
2023-03-22T06:09:56.178Z,10.68
2023-03-22T06:12:28.903Z,13.98
2023-03-22T06:15:06.610Z,9.80
2023-03-22T06:17:37.889Z,10.80
2023-03-22T06:20:11.977Z,9.18
2023-03-22T06:22:43.083Z,10.13
2023-03-22T06:25:11.720Z,11.60
2023-03-22T06:27:46.027Z,10.38
2023-03-22T06:30:14.090Z,11.77
2023-03-22T06:33:05.476Z,8.57
2023-03-22T06:35:36.549Z,8.55
2023-03-22T06:38:05.641Z,7.40
2023-03-22T06:40:35.864Z,8.02
2023-03-22T06:43:06.985Z,8.82
2023-03-22T06:45:37.091Z,6.97
2023-03-22T06:48:06.167Z,12.75
2023-03-22T06:51:03.081Z,9.32
2023-03-22T06:53:36.109Z,6.93
2023-03-22T06:56:05.609Z,8.68
2023-03-22T06:58:43.066Z,14.40
2023-03-22T07:01:10.875Z,8.85
2023-03-22T07:03:38.965Z,7.15
2023-03-22T07:06:13.096Z,6.97
2023-03-22T07:08:44.240Z,6.57
2023-03-22T07:11:14.654Z,4.90
2023-03-22T07:13:48.160Z,6.72
2023-03-22T07:16:20.289Z,7.00
2023-03-22T07:18:56.023Z,5.82
2023-03-22T07:21:24.400Z,6.95
2023-03-22T07:23:57.025Z,10.00
2023-03-22T07:26:30.594Z,7.05
2023-03-22T07:28:59.877Z,4.47
2023-03-22T07:31:31.779Z,5.00
2023-03-22T07:34:12.455Z,5.90
2023-03-22T07:37:00.540Z,4.97
2023-03-22T07:39:29.304Z,3.83
2023-03-22T07:41:58.627Z,5.90
2023-03-22T07:44:26.640Z,7.80
2023-03-22T07:47:41.194Z,4.65
2023-03-22T07:50:32.414Z,9.85
2023-03-22T07:53:04.069Z,5.35
2023-03-22T07:55:32.196Z,5.65
2023-03-22T07:57:59.885Z,9.05
2023-03-22T08:00:28.253Z,5.00
2023-03-22T08:03:22.457Z,4.60
2023-03-22T08:06:06.647Z,6.80
2023-03-22T08:08:37.034Z,10.02
2023-03-22T08:11:08.199Z,3.25
2023-03-22T08:13:40.034Z,3.15
2023-03-22T08:16:10.672Z,5.88
2023-03-22T08:18:38.516Z,7.45
2023-03-22T08:21:07.535Z,4.57
2023-03-22T08:23:41.787Z,5.22
2023-03-22T08:26:29.076Z,5.93
2023-03-22T08:29:02.419Z,3.10
2023-03-22T08:31:33.609Z,12.63
2023-03-22T08:34:01.497Z,6.00
2023-03-22T08:36:29.307Z,3.33
2023-03-22T08:39:01.631Z,4.18
2023-03-22T08:41:44.688Z,8.70
2023-03-22T08:44:12.515Z,2.90
2023-03-22T08:46:41.327Z,4.15
2023-03-22T08:49:10.544Z,2.97
2023-03-22T08:51:47.806Z,6.10
2023-03-22T08:54:38.801Z,3.17
2023-03-22T08:57:09.566Z,7.03
2023-03-22T08:59:50.051Z,3.60
2023-03-22T09:02:25.907Z,4.88
2023-03-22T09:04:54.809Z,18.50
2023-03-22T09:07:22.744Z,10.23
2023-03-22T09:10:01.315Z,23.98
2023-03-22T09:12:29.932Z,9.88
2023-03-22T09:14:57.799Z,13.60
2023-03-22T09:17:28.264Z,10.02
2023-03-22T09:20:11.118Z,5.65
2023-03-22T09:22:42.031Z,3.75
2023-03-22T09:25:12.820Z,2.30
2023-03-22T09:27:43.704Z,9.98
2023-03-22T09:30:11.858Z,3.65
2023-03-22T09:32:42.647Z,2.90
2023-03-22T09:35:13.070Z,5.68
2023-03-22T09:37:53.511Z,4.45
2023-03-22T09:40:31.162Z,2.60
2023-03-22T09:43:03.550Z,3.60
2023-03-22T09:45:38.752Z,3.03
2023-03-22T09:48:13.802Z,2.88
2023-03-22T09:50:48.293Z,3.80
2023-03-22T09:53:17.254Z,4.85
2023-03-22T09:56:12.766Z,5.00
2023-03-22T09:58:54.530Z,7.13
2023-03-22T10:01:31.841Z,6.30
2023-03-22T10:04:15.716Z,5.63
2023-03-22T10:06:47.673Z,11.10
2023-03-22T10:09:26.001Z,6.10
2023-03-22T10:12:05.127Z,4.53
2023-03-22T10:15:03.340Z,6.85
2023-03-22T10:17:31.828Z,7.28
2023-03-22T10:20:08.263Z,4.25
2023-03-22T10:22:38.855Z,8.00
2023-03-22T10:25:08.443Z,8.85
2023-03-22T10:27:36.669Z,4.97
2023-03-22T10:30:12.958Z,3.15
2023-03-22T10:32:57.124Z,5.10
2023-03-22T10:35:25.896Z,5.32
2023-03-22T10:37:55.877Z,9.43
2023-03-22T10:40:29.946Z,4.68
2023-03-22T10:43:13.387Z,4.20
2023-03-22T10:48:23.021Z,5.20
2023-03-22T10:50:50.756Z,3.78
2023-03-22T10:53:33.498Z,13.35
2023-03-22T10:56:01.258Z,10.75
2023-03-22T10:58:31.496Z,6.43
2023-03-22T11:01:11.136Z,7.13
2023-03-22T11:03:49.680Z,14.75
2023-03-22T11:06:19.882Z,11.98
2023-03-22T11:08:54.145Z,3.22
2023-03-22T11:11:41.578Z,8.50
2023-03-22T11:14:15.110Z,8.38
2023-03-22T11:17:22.703Z,4.20
2023-03-22T11:19:54.991Z,3.42
2023-03-22T11:22:25.495Z,5.18
2023-03-22T11:24:56.628Z,12.60
2023-03-22T11:27:30.395Z,3.63
2023-03-22T11:30:07.912Z,10.68
2023-03-22T11:32:37.629Z,10.35
2023-03-22T11:35:13.895Z,3.00
2023-03-22T11:37:51.670Z,7.28
2023-03-22T11:40:24.785Z,7.85
2023-03-22T11:42:57.276Z,6.47
2023-03-22T11:45:37.596Z,6.18
2023-03-22T11:48:16.915Z,6.60
2023-03-22T11:50:46.461Z,10.52
2023-03-22T11:53:17.497Z,5.07
2023-03-22T11:55:46.243Z,10.90
2023-03-22T11:58:30.080Z,5.05
2023-03-22T12:01:00.547Z,8.50
2023-03-22T12:03:40.695Z,8.63
2023-03-22T12:06:20.681Z,6.35
2023-03-22T12:08:59.264Z,6.20
2023-03-22T12:11:33.274Z,2.90
2023-03-22T12:14:14.632Z,3.75
2023-03-22T12:16:51.762Z,4.80
2023-03-22T12:19:51.129Z,2.70
2023-03-22T12:22:23.450Z,4.72
2023-03-22T12:24:51.258Z,10.57
2023-03-22T12:27:31.693Z,16.85
2023-03-22T12:30:08.563Z,4.50
2023-03-22T12:32:42.166Z,6.35
2023-03-22T12:35:18.318Z,3.13
2023-03-22T12:37:54.246Z,5.07
2023-03-22T12:40:26.452Z,7.63
2023-03-22T12:43:18.043Z,2.80
2023-03-22T12:45:56.687Z,4.10
2023-03-22T12:48:49.236Z,3.45
2023-03-22T12:51:17.055Z,4.70
2023-03-22T12:53:52.496Z,4.95
2023-03-22T12:56:41.329Z,6.55
2023-03-22T12:59:32.135Z,10.95
2023-03-22T13:02:38.524Z,11.98
2023-03-22T13:05:11.273Z,2.97
2023-03-22T13:07:41.244Z,10.07
2023-03-22T13:10:31.440Z,7.32
2023-03-22T13:13:21.784Z,10.05
2023-03-22T13:16:02.926Z,3.45
2023-03-22T13:18:37.752Z,3.05
2023-03-22T13:21:16.676Z,6.53
2023-03-22T13:24:10.357Z,7.47
2023-03-22T13:26:47.592Z,4.85
2023-03-22T13:29:24.693Z,1.55
2023-03-22T13:31:58.949Z,2.88
2023-03-22T13:34:35.871Z,5.80
2023-03-22T13:37:09.385Z,5.18
2023-03-22T13:39:39.411Z,4.35
2023-03-22T13:42:26.513Z,5.13
2023-03-22T13:44:59.286Z,4.65
2023-03-22T13:47:38.547Z,4.53
2023-03-22T13:50:16.178Z,1.55
2023-03-22T13:53:06.040Z,3.80
2023-03-22T13:55:52.025Z,6.63
2023-03-22T13:58:49.557Z,2.53
2023-03-22T14:01:36.873Z,2.00
2023-03-22T14:04:10.994Z,3.72
2023-03-22T14:06:48.319Z,1.48
2023-03-22T14:09:26.818Z,2.83
2023-03-22T14:12:01.629Z,7.63
2023-03-22T14:14:35.698Z,4.00
2023-03-22T14:19:34.016Z,2.97
